Waverly, Iowa
Current Conditions -  °F | °C
As of 10:54 AM on Friday 24 Oct 2014 (Local Time) from KALO Reporting Station
Haze Haze  
Wind Chill: 51°   Ceiling: 200
Heat Index: 51°   Visibility: 0.75mi
Dew Point: 51°   Wind: 12mph
Humidity: 100%   Direction: 170°S
Pressure: 29.97"   Gusts: NA
Location:  42.73°N, 92.48°W
Report Text: KALO 241554Z AUTO 17010KT 3/4SM R12/3000V4000FT BR OVC002 11/11 A2997 RMK AO2 SLP153 T01060106
Loading
Personal Weather Stations






























Interactive Weather Map
Tropical Storm Tracking
New forecast layout! Learn more

10-Day Weather Forecast

Advertisements
Track Severe Weather on mobile